RJNA(METAR)
12/04 19:00
METAR RJNA 041000Z 32007KT 9999 FEW030 BKN180 BKN/// 11/05 Q1021 RMK
1CU030 6AC180 A3018=
戻る
トップページへ戻る
IMOC Co,.Ltd.